This is the latest recevied weather packets stored in our database for station/object OK4PZ-5. If no packets are shown the sender has not sent any weather packets the latest 10 day(s).
| Time | Temp. | Humidity | Pressure | Rain* | Wind** | Luminosity | Snow |
|---|---|---|---|---|---|---|---|
| 1788534002 | 27.78° C | 46% | 1016 hPa | 0 mm | - | - | - |
| 1788533103 | 28.33° C | 45% | 1016 hPa | 0 mm | - | - | - |
| 1788532202 | 27.78° C | 45% | 1017 hPa | 0 mm | - | - | - |
| 1788531302 | 28.33° C | 46% | 1017 hPa | 0 mm | - | - | - |
| 1788530402 | 28.33° C | 45% | 1017 hPa | 0 mm | - | - | - |
| 1788529502 | 27.78° C | 46% | 1017 hPa | 0 mm | - | - | - |
| 1788528603 | 27.78° C | 48% | 1017 hPa | 0 mm | - | - | - |
| 1788527702 | 28.33° C | 48% | 1017 hPa | 0 mm | - | - | - |
| 1788526802 | 26.67° C | 50% | 1017 hPa | 0 mm | - | - | - |
| 1788525902 | 27.78° C | 48% | 1017 hPa | 0 mm | - | - | - |
| 1788525003 | 26.67° C | 49% | 1018 hPa | 0 mm | - | - | - |
| 1788524102 | 27.78° C | 48% | 1018 hPa | 0 mm | - | - | - |
| 1788523202 | 27.22° C | 49% | 1019 hPa | 0 mm | - | - | - |
| 1788522303 | 26.67° C | 49% | 1018 hPa | 0 mm | - | - | - |
| 1788521402 | 26.67° C | 49% | 1019 hPa | 0 mm | - | - | - |
| 1788520502 | 25.56° C | 52% | 1019 hPa | 0 mm | - | - | - |
| 1788519602 | 25° C | 53% | 1019 hPa | 0 mm | - | - | - |
| 1788518702 | 25° C | 55% | 1019 hPa | 0 mm | - | - | - |
| 1788517802 | 25° C | 55% | 1019 hPa | 0 mm | - | - | - |
| 1788516902 | 25° C | 55% | 1020 hPa | 0 mm | - | - | - |
| 1788516002 | 26.11° C | 54% | 1020 hPa | 0 mm | - | - | - |
| 1788515102 | 25° C | 56% | 1020 hPa | 0 mm | - | - | - |
| 1788514203 | 24.44° C | 58% | 1020 hPa | 0 mm | - | - | - |
| 1788513302 | 23.33° C | 59% | 1021 hPa | 0 mm | - | - | - |
| 1788512402 | 23.33° C | 61% | 1021 hPa | 0 mm | - | - | - |
* Rain latest hour (hover to see other rain measurements)
** Current wind speed in m/s (hover to see current wind gust speed)